createdAt,value
2022-12-22T00:02:13.639Z,27.02
2022-12-22T00:07:35.032Z,26.62
2022-12-22T00:12:58.272Z,27.35
2022-12-22T00:18:20.460Z,26.75
2022-12-22T00:23:41.864Z,26.87
2022-12-22T00:29:04.706Z,26.67
2022-12-22T00:34:33.082Z,26.87
2022-12-22T00:39:54.476Z,28.23
2022-12-22T00:45:17.393Z,28.75
2022-12-22T00:50:45.447Z,29.55
2022-12-22T00:56:06.841Z,28.40
2022-12-22T01:01:31.099Z,26.33
2022-12-22T01:06:55.246Z,30.65
2022-12-22T01:12:16.665Z,30.83
2022-12-22T01:17:39.369Z,30.85
2022-12-22T01:23:00.812Z,31.08
2022-12-22T01:28:23.233Z,31.00
2022-12-22T01:33:45.953Z,29.52
2022-12-22T01:39:07.467Z,33.40
2022-12-22T01:44:33.440Z,27.95
2022-12-22T01:49:57.549Z,31.60
2022-12-22T01:55:24.333Z,31.05
2022-12-22T02:00:45.849Z,31.83
2022-12-22T02:06:21.004Z,32.08
2022-12-22T02:11:54.160Z,28.98
2022-12-22T02:17:25.575Z,34.65
2022-12-22T02:22:58.264Z,30.90
2022-12-22T02:28:22.931Z,29.90
2022-12-22T02:33:44.432Z,30.17
2022-12-22T02:39:13.768Z,31.35
2022-12-22T02:44:45.865Z,30.80
2022-12-22T02:50:12.968Z,29.23
2022-12-22T02:55:34.711Z,30.10
2022-12-22T03:00:58.458Z,30.00
2022-12-22T03:06:20.092Z,28.50
2022-12-22T03:11:41.451Z,28.00
2022-12-22T03:17:04.055Z,29.40
2022-12-22T03:22:25.348Z,29.17
2022-12-22T03:27:29.116Z,28.38
2022-12-22T03:32:34.180Z,31.65
2022-12-22T03:37:37.859Z,23.38
2022-12-22T03:42:59.231Z,25.48
2022-12-22T03:48:04.613Z,30.45
2022-12-22T03:53:08.375Z,30.52
2022-12-22T03:58:12.085Z,32.42
2022-12-22T04:03:17.680Z,28.90
2022-12-22T04:08:21.408Z,31.95
2022-12-22T04:13:25.137Z,28.23
2022-12-22T04:18:30.180Z,29.23
2022-12-22T04:23:33.920Z,25.23
2022-12-22T04:28:37.650Z,29.60
2022-12-22T04:33:42.750Z,29.73
2022-12-22T04:38:46.871Z,28.62
2022-12-22T04:43:50.692Z,28.38
2022-12-22T04:49:00.016Z,29.73
2022-12-22T04:54:04.446Z,30.15
2022-12-22T04:59:08.163Z,27.10
2022-12-22T05:04:14.457Z,26.08
2022-12-22T05:09:21.131Z,22.98
2022-12-22T05:14:24.833Z,25.10
2022-12-22T05:19:30.993Z,25.62
2022-12-22T05:24:34.938Z,27.35
2022-12-22T05:29:38.680Z,26.90
2022-12-22T05:34:43.827Z,27.05
2022-12-22T05:39:47.557Z,27.23
2022-12-22T05:44:51.291Z,30.77
2022-12-22T05:49:56.318Z,31.27
2022-12-22T05:55:00.071Z,35.97
2022-12-22T06:00:04.844Z,38.13
2022-12-22T06:05:16.566Z,38.97
2022-12-22T06:10:21.667Z,38.10
2022-12-22T06:15:25.410Z,39.10
2022-12-22T06:20:30.514Z,36.97
2022-12-22T06:25:34.692Z,33.78
2022-12-22T06:30:38.403Z,34.85
2022-12-22T06:35:43.554Z,36.70
2022-12-22T06:40:48.688Z,35.08
2022-12-22T06:45:52.954Z,38.50
2022-12-22T06:51:00.424Z,38.05
2022-12-22T06:56:04.196Z,39.43
2022-12-22T07:01:07.898Z,42.92
2022-12-22T07:06:13.052Z,39.22
2022-12-22T07:11:17.235Z,40.35
2022-12-22T07:16:21.030Z,40.97
2022-12-22T07:21:26.208Z,39.33
2022-12-22T07:26:30.082Z,41.35
2022-12-22T07:31:33.871Z,41.58
2022-12-22T07:36:38.965Z,39.58
2022-12-22T07:42:00.338Z,39.10
2022-12-22T07:47:04.160Z,40.88
2022-12-22T07:52:09.659Z,41.55
2022-12-22T07:57:13.445Z,38.00
2022-12-22T08:02:17.590Z,36.33
2022-12-22T08:07:22.869Z,36.33
2022-12-22T08:12:27.007Z,39.33
2022-12-22T08:17:31.014Z,38.33
2022-12-22T08:22:36.134Z,34.97
2022-12-22T08:27:45.275Z,36.97
2022-12-22T08:32:50.731Z,36.60
2022-12-22T08:37:56.115Z,34.92
2022-12-22T08:43:03.332Z,38.20
2022-12-22T08:48:07.554Z,37.85
2022-12-22T08:53:37.184Z,37.17
2022-12-22T08:58:36.472Z,36.03
2022-12-22T09:03:40.246Z,36.78
2022-12-22T09:08:45.336Z,36.53
2022-12-22T09:13:49.198Z,35.35
2022-12-22T09:18:53.417Z,35.15
2022-12-22T09:23:59.278Z,35.28
2022-12-22T09:29:03.383Z,33.92
2022-12-22T09:34:10.659Z,32.47
2022-12-22T09:39:22.270Z,32.95
2022-12-22T09:44:35.339Z,32.58
2022-12-22T09:49:39.270Z,31.65
2022-12-22T09:54:44.364Z,29.42
2022-12-22T09:59:48.523Z,30.77
2022-12-22T10:05:03.287Z,32.17
2022-12-22T10:10:18.480Z,32.03
2022-12-22T10:15:22.426Z,30.67
2022-12-22T10:20:28.000Z,27.95
2022-12-22T10:26:00.616Z,29.00
2022-12-22T10:31:17.008Z,26.08
2022-12-22T10:36:24.468Z,25.20
2022-12-22T10:41:33.381Z,25.10
2022-12-22T10:46:40.908Z,22.20
2022-12-22T10:51:47.643Z,21.87
2022-12-22T10:57:01.285Z,21.20
2022-12-22T11:02:38.104Z,24.23
2022-12-22T11:07:44.120Z,24.75
2022-12-22T11:13:25.095Z,26.98
2022-12-22T11:18:48.065Z,29.60
2022-12-22T11:24:02.735Z,29.17
2022-12-22T11:29:27.725Z,27.85
2022-12-22T11:34:51.880Z,31.17
2022-12-22T11:39:59.824Z,31.23
2022-12-22T11:45:31.261Z,30.20
2022-12-22T11:51:01.670Z,32.28
2022-12-22T11:56:20.089Z,33.50
2022-12-22T12:07:01.103Z,33.63
2022-12-22T12:12:11.445Z,31.90
2022-12-22T12:17:26.192Z,34.78
2022-12-22T12:22:45.343Z,33.38
2022-12-22T12:28:01.270Z,34.10
2022-12-22T12:33:13.353Z,36.42
2022-12-22T12:38:56.900Z,33.38
2022-12-22T12:43:49.734Z,35.17
2022-12-22T12:48:56.623Z,32.45
2022-12-22T12:54:23.540Z,32.65
2022-12-22T12:59:48.469Z,30.40
2022-12-22T13:05:33.035Z,31.60
2022-12-22T13:10:41.514Z,30.50
2022-12-22T13:15:45.951Z,29.83
2022-12-22T13:21:12.307Z,28.35
2022-12-22T13:26:25.131Z,26.75
2022-12-22T13:31:33.949Z,23.55
2022-12-22T13:36:38.188Z,22.67
2022-12-22T13:41:45.857Z,21.58
2022-12-22T13:46:50.015Z,22.15
2022-12-22T13:51:54.296Z,21.77
2022-12-22T13:57:03.351Z,19.70
2022-12-22T14:02:17.002Z,17.37
2022-12-22T14:07:21.871Z,18.20
2022-12-22T14:12:30.080Z,17.92
2022-12-22T14:17:36.586Z,17.25
2022-12-22T14:22:46.689Z,16.05
2022-12-22T14:27:54.573Z,16.52
2022-12-22T14:32:58.667Z,15.23
2022-12-22T14:38:18.555Z,14.95
2022-12-22T14:43:28.962Z,14.35
2022-12-22T14:48:36.150Z,16.98
2022-12-22T14:53:45.785Z,18.35
2022-12-22T14:58:51.440Z,18.90
2022-12-22T15:04:01.373Z,18.27
2022-12-22T15:10:03.663Z,18.33
2022-12-22T15:14:50.680Z,17.62
2022-12-22T15:19:57.673Z,17.62
2022-12-22T15:25:01.397Z,17.37
2022-12-22T15:30:44.928Z,19.23
2022-12-22T15:35:49.033Z,18.02
2022-12-22T15:40:53.389Z,17.45
2022-12-22T15:45:59.187Z,18.95
2022-12-22T15:51:04.500Z,17.58
2022-12-22T15:56:17.861Z,16.90
2022-12-22T16:01:23.217Z,17.05
2022-12-22T16:06:26.998Z,16.85
2022-12-22T16:11:30.815Z,16.87
2022-12-22T16:16:35.931Z,16.65
2022-12-22T16:21:39.856Z,16.67
2022-12-22T16:26:43.699Z,18.02
2022-12-22T16:31:49.619Z,16.95
2022-12-22T16:36:53.439Z,16.90
2022-12-22T16:41:59.912Z,17.73
2022-12-22T16:47:06.447Z,17.42
2022-12-22T16:52:18.013Z,19.30
2022-12-22T16:57:21.778Z,20.55
2022-12-22T17:02:29.986Z,22.42
2022-12-22T17:07:34.584Z,21.87
2022-12-22T17:12:38.378Z,23.90
2022-12-22T17:17:43.465Z,24.83
2022-12-22T17:22:51.893Z,26.95
2022-12-22T17:27:57.133Z,25.80
2022-12-22T17:33:02.462Z,26.35
2022-12-22T17:38:06.385Z,28.48
2022-12-22T17:43:14.460Z,29.08
2022-12-22T17:48:19.605Z,27.45
2022-12-22T17:53:23.336Z,27.62
2022-12-22T17:58:27.093Z,25.73
2022-12-22T18:03:32.341Z,28.42
2022-12-22T18:08:37.026Z,25.50
2022-12-22T18:13:41.385Z,27.87
2022-12-22T18:18:46.887Z,28.80
2022-12-22T18:23:51.791Z,26.33
2022-12-22T18:28:56.692Z,22.77
2022-12-22T18:34:01.949Z,21.90
2022-12-22T18:39:07.547Z,20.60
2022-12-22T18:44:16.819Z,20.60
2022-12-22T18:49:21.915Z,21.42
2022-12-22T18:54:31.216Z,18.17
2022-12-22T18:59:34.907Z,19.30
2022-12-22T19:04:40.033Z,16.35
2022-12-22T19:09:43.844Z,16.23
2022-12-22T19:14:50.826Z,18.85
2022-12-22T19:19:56.041Z,20.25
2022-12-22T19:24:59.737Z,21.10
2022-12-22T19:30:04.930Z,17.50
2022-12-22T19:35:16.340Z,14.13
2022-12-22T19:40:21.899Z,15.68
2022-12-22T19:45:28.104Z,14.05
2022-12-22T19:50:33.307Z,12.25
2022-12-22T19:55:41.486Z,15.98
2022-12-22T20:00:46.834Z,14.60
2022-12-22T20:05:52.551Z,13.75
2022-12-22T20:10:58.993Z,15.40
2022-12-22T20:16:02.919Z,13.62
2022-12-22T20:21:13.707Z,13.25
2022-12-22T20:26:20.823Z,14.65
2022-12-22T20:31:25.857Z,14.63
2022-12-22T20:36:31.912Z,16.40
2022-12-22T20:41:35.888Z,14.70
2022-12-22T20:46:40.869Z,12.90
2022-12-22T20:51:45.974Z,15.48
2022-12-22T20:56:49.856Z,13.05
2022-12-22T21:01:53.982Z,13.23
2022-12-22T21:06:59.196Z,13.27
2022-12-22T21:12:03.000Z,13.20
2022-12-22T21:17:13.011Z,11.95
2022-12-22T21:22:18.174Z,11.23
2022-12-22T21:27:22.078Z,11.85
2022-12-22T21:32:25.806Z,12.75
2022-12-22T21:37:34.535Z,13.68
2022-12-22T21:42:38.287Z,12.20
2022-12-22T21:47:42.308Z,14.27
2022-12-22T21:52:50.254Z,13.95
2022-12-22T21:57:54.580Z,15.07
2022-12-22T22:02:58.621Z,14.95
2022-12-22T22:08:05.578Z,15.13
2022-12-22T22:13:12.088Z,14.00
2022-12-22T22:18:17.441Z,15.38
2022-12-22T22:23:22.538Z,15.68
2022-12-22T22:28:26.863Z,16.45
2022-12-22T22:33:30.567Z,16.65
2022-12-22T22:38:36.375Z,18.00
2022-12-22T22:43:40.125Z,18.65
2022-12-22T22:48:43.863Z,19.73
2022-12-22T22:53:48.910Z,19.25
2022-12-22T22:58:52.731Z,20.98
2022-12-22T23:03:56.622Z,22.20
2022-12-22T23:09:01.791Z,22.87
2022-12-22T23:14:05.809Z,24.77
2022-12-22T23:19:09.493Z,24.02
2022-12-22T23:24:14.558Z,24.52
2022-12-22T23:29:18.287Z,24.55
2022-12-22T23:34:22.034Z,23.00
2022-12-22T23:39:27.261Z,22.95
2022-12-22T23:44:31.047Z,21.52
2022-12-22T23:49:34.732Z,22.90
2022-12-22T23:54:39.858Z,23.30
2022-12-22T23:59:43.538Z,24.12
